createdAt,value
2022-12-16T00:04:20.125Z,-1.40
2022-12-16T00:09:28.789Z,-1.40
2022-12-16T00:14:37.070Z,-1.40
2022-12-16T00:19:46.529Z,-1.40
2022-12-16T00:24:56.668Z,-1.50
2022-12-16T00:29:55.483Z,-1.50
2022-12-16T00:35:04.521Z,-1.50
2022-12-16T00:40:13.203Z,-1.50
2022-12-16T00:45:21.652Z,-1.50
2022-12-16T00:50:30.643Z,-1.50
2022-12-16T00:55:40.172Z,-1.60
2022-12-16T01:00:48.970Z,-1.60
2022-12-16T01:05:57.425Z,-1.60
2022-12-16T01:11:06.823Z,-1.60
2022-12-16T01:16:15.357Z,-1.50
2022-12-16T01:21:24.133Z,-1.50
2022-12-16T01:26:32.850Z,-1.50
2022-12-16T01:31:41.664Z,-1.60
2022-12-16T01:36:50.644Z,-1.60
2022-12-16T01:41:59.545Z,-1.70
2022-12-16T01:47:08.848Z,-1.70
2022-12-16T01:52:17.765Z,-1.70
2022-12-16T01:57:25.972Z,-1.70
2022-12-16T02:02:35.401Z,-1.70
2022-12-16T02:07:43.741Z,-1.70
2022-12-16T02:12:51.917Z,-1.70
2022-12-16T02:18:00.405Z,-1.70
2022-12-16T02:23:09.161Z,-1.70
2022-12-16T02:28:17.915Z,-1.70
2022-12-16T02:33:26.817Z,-1.70
2022-12-16T02:38:35.144Z,-1.70
2022-12-16T02:43:43.950Z,-1.70
2022-12-16T02:48:52.164Z,-1.70
2022-12-16T02:54:01.135Z,-1.60
2022-12-16T02:59:09.804Z,-1.60
2022-12-16T03:04:18.534Z,-1.70
2022-12-16T03:09:27.093Z,-1.80
2022-12-16T03:14:35.911Z,-1.90
2022-12-16T03:19:44.063Z,-2.00
2022-12-16T03:24:53.228Z,-2.10
2022-12-16T03:30:01.642Z,-2.20
2022-12-16T03:35:10.864Z,-2.20
2022-12-16T03:40:19.735Z,-2.30
2022-12-16T03:45:28.206Z,-2.30
2022-12-16T03:50:36.751Z,-2.40
2022-12-16T03:55:45.103Z,-2.40
2022-12-16T04:00:53.728Z,-2.40
2022-12-16T04:06:02.057Z,-2.50
2022-12-16T04:11:10.695Z,-2.50
2022-12-16T04:16:19.301Z,-2.40
2022-12-16T04:21:27.694Z,-2.30
2022-12-16T04:26:36.512Z,-2.20
2022-12-16T04:31:44.986Z,-2.10
2022-12-16T04:36:53.808Z,-2.00
2022-12-16T04:42:02.432Z,-2.10
2022-12-16T04:47:11.333Z,-2.00
2022-12-16T04:52:19.686Z,-1.90
2022-12-16T04:57:28.605Z,-1.90
2022-12-16T05:02:37.163Z,-1.90
2022-12-16T05:07:45.930Z,-1.70
2022-12-16T05:12:54.699Z,-1.70
2022-12-16T05:18:03.627Z,-1.90
2022-12-16T05:23:12.163Z,-2.00
2022-12-16T05:28:21.011Z,-1.90
2022-12-16T05:33:29.557Z,-1.90
2022-12-16T05:38:38.522Z,-1.70
2022-12-16T05:43:47.233Z,-1.60
2022-12-16T05:48:56.179Z,-1.60
2022-12-16T05:54:04.549Z,-1.50
2022-12-16T05:59:13.380Z,-1.50
2022-12-16T06:04:22.073Z,-1.40
2022-12-16T06:09:30.755Z,-1.20
2022-12-16T06:14:39.006Z,-1.10
2022-12-16T06:19:47.690Z,-1.10
2022-12-16T06:24:56.189Z,-1.10
2022-12-16T06:30:05.069Z,-1.10
2022-12-16T06:35:13.451Z,-1.10
2022-12-16T06:40:22.606Z,-1.00
2022-12-16T06:45:34.660Z,-1.00
2022-12-16T06:50:44.681Z,-1.00
2022-12-16T06:55:47.945Z,-0.90
2022-12-16T07:00:56.809Z,-0.90
2022-12-16T07:06:05.318Z,-0.80
2022-12-16T07:11:17.096Z,-0.70
2022-12-16T07:16:22.550Z,-0.60
2022-12-16T07:21:31.190Z,-0.50
2022-12-16T07:26:39.681Z,-0.40
2022-12-16T07:31:48.398Z,-0.30
2022-12-16T07:36:56.700Z,-0.20
2022-12-16T07:42:05.461Z,-0.10
2022-12-16T07:47:14.156Z,0.10
2022-12-16T07:52:22.764Z,0.20
2022-12-16T07:57:31.046Z,0.10
2022-12-16T08:02:40.113Z,0.00
2022-12-16T08:07:48.153Z,-0.10
2022-12-16T08:12:57.002Z,-0.10
2022-12-16T08:18:05.382Z,-0.10
2022-12-16T08:23:13.881Z,-0.10
2022-12-16T08:28:21.990Z,-0.10
2022-12-16T08:33:30.338Z,0.00
2022-12-16T08:38:39.015Z,0.00
2022-12-16T08:43:47.418Z,0.20
2022-12-16T08:48:55.770Z,0.40
2022-12-16T08:54:04.590Z,0.60
2022-12-16T08:59:13.307Z,0.90
2022-12-16T09:04:21.549Z,1.00
2022-12-16T09:09:29.640Z,1.20
2022-12-16T09:14:39.064Z,1.30
2022-12-16T09:19:47.600Z,1.50
2022-12-16T09:24:56.391Z,1.70
2022-12-16T09:30:04.718Z,1.70
2022-12-16T09:35:13.830Z,1.70
2022-12-16T09:40:20.939Z,1.60
2022-12-16T09:45:29.696Z,1.60
2022-12-16T09:50:37.940Z,1.50
2022-12-16T09:55:46.340Z,1.50
2022-12-16T10:00:54.770Z,1.50
2022-12-16T10:06:02.851Z,1.50
2022-12-16T10:11:11.193Z,1.50
2022-12-16T10:16:20.015Z,1.50
2022-12-16T10:21:27.989Z,1.50
2022-12-16T10:26:36.946Z,1.60
2022-12-16T10:31:45.649Z,1.60
2022-12-16T10:36:54.854Z,1.60
2022-12-16T10:42:03.544Z,1.60
2022-12-16T10:47:12.590Z,1.60
2022-12-16T10:52:20.862Z,1.60
2022-12-16T10:57:29.747Z,1.50
2022-12-16T11:02:38.790Z,1.50
2022-12-16T11:07:47.404Z,1.50
2022-12-16T11:12:55.582Z,1.50
2022-12-16T11:18:04.334Z,1.40
2022-12-16T11:23:12.707Z,1.40
2022-12-16T11:28:21.699Z,1.40
2022-12-16T11:33:30.821Z,1.30
2022-12-16T11:38:38.698Z,1.20
2022-12-16T11:43:47.321Z,1.00
2022-12-16T11:48:56.347Z,1.00
2022-12-16T11:54:04.874Z,1.00
2022-12-16T11:59:13.924Z,1.10
2022-12-16T12:04:22.052Z,1.00
2022-12-16T12:09:30.867Z,0.90
2022-12-16T12:14:39.443Z,0.80
2022-12-16T12:19:48.747Z,0.70
2022-12-16T12:24:58.187Z,0.70
2022-12-16T12:30:05.369Z,0.60
2022-12-16T12:35:13.854Z,0.50
2022-12-16T12:40:22.763Z,0.30
2022-12-16T12:45:31.351Z,0.30
2022-12-16T12:50:40.669Z,0.20
2022-12-16T12:55:49.387Z,0.10
2022-12-16T13:00:59.095Z,0.00
2022-12-16T13:06:07.421Z,-0.10
2022-12-16T13:11:15.867Z,-0.10
2022-12-16T13:16:24.196Z,-0.20
2022-12-16T13:21:32.712Z,-0.30
2022-12-16T13:26:41.263Z,-0.40
2022-12-16T13:31:50.206Z,-0.40
2022-12-16T13:36:58.677Z,-0.50
2022-12-16T13:42:07.180Z,-0.60
2022-12-16T13:47:15.464Z,-0.60
2022-12-16T13:52:24.890Z,-0.70
2022-12-16T13:57:33.631Z,-0.60
2022-12-16T14:02:42.853Z,-0.60
2022-12-16T14:07:51.300Z,-0.50
2022-12-16T14:13:00.220Z,-0.50
2022-12-16T14:18:08.744Z,-0.60
2022-12-16T14:23:39.149Z,-0.60
2022-12-16T14:28:25.248Z,-0.60
2022-12-16T14:33:34.200Z,-0.70
2022-12-16T14:38:42.775Z,-0.80
2022-12-16T14:43:51.421Z,-0.80
2022-12-16T14:49:00.828Z,-0.90
2022-12-16T14:54:09.557Z,-0.90
2022-12-16T14:59:17.932Z,-0.80
2022-12-16T15:04:27.228Z,-0.80
2022-12-16T15:09:35.703Z,-0.80
2022-12-16T15:14:44.706Z,-0.80
2022-12-16T15:19:53.237Z,-0.70
2022-12-16T15:25:02.265Z,-0.70
2022-12-16T15:30:10.631Z,-0.70
2022-12-16T15:35:19.263Z,-0.70
2022-12-16T15:40:28.119Z,-0.60
2022-12-16T15:45:36.513Z,-0.70
2022-12-16T15:50:45.105Z,-0.70
2022-12-16T15:55:53.593Z,-0.70
2022-12-16T16:01:02.630Z,-0.70
2022-12-16T16:06:11.963Z,-0.60
2022-12-16T16:11:23.784Z,-0.60
2022-12-16T16:16:22.667Z,-0.60
2022-12-16T16:21:30.937Z,-0.60
2022-12-16T16:26:39.692Z,-0.50
2022-12-16T16:31:48.415Z,-0.50
2022-12-16T16:36:57.841Z,-0.50
2022-12-16T16:42:06.219Z,-0.60
2022-12-16T16:47:14.803Z,-0.60
2022-12-16T16:52:24.040Z,-0.60
2022-12-16T16:57:33.101Z,-0.70
2022-12-16T17:02:41.748Z,-0.70
2022-12-16T17:07:53.749Z,-0.80
2022-12-16T17:13:04.094Z,-0.80
2022-12-16T17:18:06.358Z,-0.80
2022-12-16T17:23:15.861Z,-0.80
2022-12-16T17:28:18.357Z,-0.80
2022-12-16T17:33:28.060Z,-0.80
2022-12-16T17:38:37.458Z,-0.90
2022-12-16T17:43:46.235Z,-0.90
2022-12-16T17:48:55.141Z,-0.90
2022-12-16T17:54:12.129Z,-0.90
2022-12-16T17:59:12.363Z,-1.00
2022-12-16T18:04:20.865Z,-0.90
2022-12-16T18:09:29.637Z,-1.00
2022-12-16T18:14:37.792Z,-0.90
2022-12-16T18:19:46.593Z,-0.90
2022-12-16T18:24:55.424Z,-0.80
2022-12-16T18:30:04.557Z,-0.80
2022-12-16T18:35:08.028Z,-0.70
2022-12-16T18:40:16.691Z,-0.70
2022-12-16T18:45:26.429Z,-0.70
2022-12-16T18:50:38.125Z,-0.80
2022-12-16T18:55:43.395Z,-0.80
2022-12-16T19:00:53.178Z,-0.80
2022-12-16T19:05:54.593Z,-0.80
2022-12-16T19:11:03.774Z,-0.80
2022-12-16T19:16:12.243Z,-0.90
2022-12-16T19:21:21.256Z,-0.90
2022-12-16T19:26:29.773Z,-0.80
2022-12-16T19:31:38.431Z,-0.80
2022-12-16T19:36:47.072Z,-0.80
2022-12-16T19:47:03.997Z,-0.70
2022-12-16T19:52:12.852Z,-0.70
2022-12-16T19:57:21.471Z,-0.70
2022-12-16T20:02:30.658Z,-0.70
2022-12-16T20:07:38.902Z,-0.70
2022-12-16T20:12:47.737Z,-0.70
2022-12-16T20:17:56.307Z,-0.70
2022-12-16T20:23:04.757Z,-0.70
2022-12-16T20:28:13.108Z,-0.70
2022-12-16T20:33:21.908Z,-0.60
2022-12-16T20:38:30.040Z,-0.70
2022-12-16T20:43:39.021Z,-0.70
2022-12-16T20:48:46.811Z,-0.70
2022-12-16T20:53:56.468Z,-0.70
2022-12-16T20:59:03.196Z,-0.70
2022-12-16T21:04:12.125Z,-0.60
2022-12-16T21:09:20.885Z,-0.60
2022-12-16T21:14:29.913Z,-0.50
2022-12-16T21:19:38.366Z,-0.50
2022-12-16T21:24:47.027Z,-0.50
2022-12-16T21:29:56.043Z,-0.50
2022-12-16T21:35:05.620Z,-0.50
2022-12-16T21:40:13.874Z,-0.50
2022-12-16T21:45:22.455Z,-0.40
2022-12-16T21:50:32.848Z,-0.40
2022-12-16T21:55:32.363Z,-0.40
2022-12-16T22:00:40.779Z,-0.40
2022-12-16T22:05:49.195Z,-0.30
2022-12-16T22:10:57.709Z,-0.30
2022-12-16T22:16:07.148Z,-0.20
2022-12-16T22:21:15.413Z,-0.20
2022-12-16T22:26:24.185Z,-0.20
2022-12-16T22:31:32.744Z,-0.20
2022-12-16T22:36:41.194Z,-0.20
2022-12-16T22:41:49.606Z,-0.20
2022-12-16T22:46:58.377Z,-0.20
2022-12-16T22:52:06.822Z,-0.10
2022-12-16T22:57:15.617Z,-0.10
2022-12-16T23:02:23.975Z,-0.10
2022-12-16T23:07:32.800Z,-0.10
2022-12-16T23:12:41.454Z,-0.10
2022-12-16T23:17:50.304Z,0.00
2022-12-16T23:22:58.530Z,-0.10
2022-12-16T23:28:07.425Z,-0.10
2022-12-16T23:33:15.859Z,-0.10
2022-12-16T23:38:24.540Z,-0.10
2022-12-16T23:43:33.009Z,0.00
2022-12-16T23:48:42.114Z,0.00
2022-12-16T23:53:50.491Z,0.00
2022-12-16T23:58:59.595Z,0.10
